Time;durP1;ratioP1;P1;durP2;ratioP2;P2;SDS_P1;SDS_P2;PMS_P1;PMS_P2;Temp;Humidity;BMP_temperature;BMP_pressure;BME280_temperature;BME280_humidity;BME280_pressure;Samples;Min_cycle;Max_cycle;Signal;HPM_P1;HPM_P2
2023/06/29 00:00:22;;;;;;;9.02;5.50;;;20.60;99.90;;;;;;5027684;28;20198;-77
2023/06/29 00:02:49;;;;;;;8.63;5.40;;;20.60;99.90;;;;;;5030928;28;20225;-77
2023/06/29 00:05:18;;;;;;;6.82;4.85;;;20.60;99.90;;;;;;5029819;28;20195;-77
2023/06/29 00:07:45;;;;;;;8.35;4.97;;;20.60;99.90;;;;;;5025992;28;20218;-77
2023/06/29 00:10:13;;;;;;;7.28;5.00;;;20.60;99.90;;;;;;5023638;28;20202;-77
2023/06/29 00:12:42;;;;;;;8.73;4.80;;;20.50;99.90;;;;;;5012915;28;20221;-78
2023/06/29 00:15:11;;;;;;;8.10;5.43;;;20.60;99.90;;;;;;5023883;28;20234;-77
2023/06/29 00:17:39;;;;;;;8.77;5.68;;;20.50;99.90;;;;;;5012356;28;20194;-77
2023/06/29 00:20:10;;;;;;;8.95;5.38;;;20.60;99.90;;;;;;5029779;28;20203;-77
2023/06/29 00:22:40;;;;;;;9.07;5.63;;;20.60;99.90;;;;;;5031968;28;20226;-77
2023/06/29 00:25:09;;;;;;;7.38;5.63;;;20.50;99.90;;;;;;5004911;28;20215;-77
2023/06/29 00:27:37;;;;;;;6.55;5.10;;;20.60;99.90;;;;;;4997522;28;20222;-77
2023/06/29 00:30:05;;;;;;;8.88;5.57;;;20.60;99.90;;;;;;5029257;28;20704;-77
2023/06/29 00:32:34;;;;;;;7.72;5.20;;;20.60;99.90;;;;;;5030605;28;20582;-77
2023/06/29 00:35:02;;;;;;;7.43;5.25;;;20.60;99.90;;;;;;5026586;28;20211;-77
2023/06/29 00:37:29;;;;;;;8.13;5.45;;;20.50;99.90;;;;;;5035967;28;20214;-77
2023/06/29 00:39:56;;;;;;;7.32;5.40;;;20.60;99.90;;;;;;5030256;28;20198;-77
2023/06/29 00:42:26;;;;;;;7.63;4.88;;;20.60;99.90;;;;;;5030543;28;20218;-77
2023/06/29 00:44:53;;;;;;;7.20;5.25;;;20.60;99.90;;;;;;5030116;28;20195;-77
2023/06/29 00:47:22;;;;;;;9.18;5.40;;;20.60;99.90;;;;;;5010022;28;20200;-77
2023/06/29 00:49:51;;;;;;;9.40;5.55;;;20.60;99.90;;;;;;5015869;28;20208;-78
2023/06/29 00:52:19;;;;;;;9.82;5.53;;;20.70;99.90;;;;;;5012523;28;20219;-77
2023/06/29 00:54:50;;;;;;;6.38;5.40;;;20.70;99.90;;;;;;5027129;28;20227;-77
2023/06/29 00:57:17;;;;;;;10.35;5.60;;;20.70;99.90;;;;;;5013503;28;20191;-77
2023/06/29 00:59:45;;;;;;;7.43;5.38;;;20.60;99.90;;;;;;5030243;28;20191;-78
2023/06/29 01:02:15;;;;;;;7.60;5.43;;;20.70;99.90;;;;;;5028744;28;20215;-77
2023/06/29 01:04:45;;;;;;;8.02;5.05;;;20.60;99.90;;;;;;5025343;28;20199;-78
2023/06/29 01:07:20;;;;;;;6.88;5.20;;;20.70;99.90;;;;;;5026878;28;20546;-78
2023/06/29 01:09:48;;;;;;;7.38;5.10;;;20.70;99.90;;;;;;5034852;28;20561;-77
2023/06/29 01:12:17;;;;;;;7.00;5.40;;;20.70;99.90;;;;;;5010452;28;20224;-77
2023/06/29 01:14:46;;;;;;;7.40;5.80;;;20.70;99.90;;;;;;5017056;28;20207;-78
2023/06/29 01:17:16;;;;;;;6.53;5.80;;;20.70;99.90;;;;;;5019050;28;20215;-78
2023/06/29 01:19:48;;;;;;;6.35;4.90;;;20.80;99.90;;;;;;5014928;28;20200;-77
2023/06/29 01:22:21;;;;;;;8.32;5.50;;;20.80;99.90;;;;;;5007327;28;20234;-77
2023/06/29 01:24:50;;;;;;;9.60;5.57;;;20.70;99.90;;;;;;5007904;28;20204;-78
2023/06/29 01:27:19;;;;;;;7.85;6.07;;;20.70;99.90;;;;;;5030324;28;20199;-77
2023/06/29 01:29:48;;;;;;;8.38;5.72;;;20.70;99.90;;;;;;5026503;28;20191;-78
2023/06/29 01:32:15;;;;;;;10.80;5.97;;;20.70;99.90;;;;;;5031329;28;20218;-78
2023/06/29 01:34:43;;;;;;;6.88;6.07;;;20.60;99.90;;;;;;5017321;28;20199;-78
2023/06/29 01:37:39;;;;;;;12.25;6.15;;;20.60;99.90;;;;;;5021654;28;20198;-78
2023/06/29 01:40:11;;;;;;;10.70;5.75;;;20.50;99.90;;;;;;5028952;28;20198;-77
2023/06/29 01:42:40;;;;;;;8.07;6.03;;;20.60;99.90;;;;;;5031712;28;20237;-78
2023/06/29 01:45:11;;;;;;;8.52;6.35;;;20.60;99.90;;;;;;5037336;28;20191;-77
2023/06/29 01:47:40;;;;;;;7.25;5.97;;;20.50;99.90;;;;;;5035226;28;20202;-77
2023/06/29 01:50:08;;;;;;;7.35;4.93;;;20.60;99.90;;;;;;5050580;28;20198;-78
2023/06/29 01:52:38;;;;;;;7.80;6.35;;;20.70;99.90;;;;;;5033879;28;20218;-78
2023/06/29 01:55:09;;;;;;;7.10;5.90;;;20.60;99.90;;;;;;5009449;28;20207;-78
2023/06/29 01:57:37;;;;;;;12.35;6.80;;;20.60;99.90;;;;;;5038156;28;20206;-77
2023/06/29 02:00:05;;;;;;;8.23;6.63;;;20.40;99.90;;;;;;5039260;28;20194;-77
2023/06/29 02:02:41;;;;;;;9.52;7.10;;;20.40;99.90;;;;;;5023539;28;20218;-77
2023/06/29 02:05:09;;;;;;;8.85;6.55;;;20.40;99.90;;;;;;5011430;28;20212;-77
2023/06/29 02:07:36;;;;;;;7.47;6.30;;;20.40;99.90;;;;;;5003301;28;20208;-77
2023/06/29 02:10:04;;;;;;;10.35;7.40;;;20.40;99.90;;;;;;5012058;28;20203;-77
2023/06/29 02:12:34;;;;;;;12.60;6.40;;;20.40;99.90;;;;;;5019604;28;20231;-77
2023/06/29 02:15:01;;;;;;;10.05;6.63;;;20.40;99.90;;;;;;5038517;28;20242;-77
2023/06/29 02:17:29;;;;;;;7.85;6.70;;;20.50;99.90;;;;;;5024056;28;20257;-77
2023/06/29 02:19:56;;;;;;;7.47;5.95;;;20.50;99.90;;;;;;5034098;28;20195;-77
2023/06/29 02:22:24;;;;;;;9.45;6.22;;;20.50;99.90;;;;;;5021777;28;20225;-77
2023/06/29 02:24:52;;;;;;;8.50;5.93;;;20.60;99.90;;;;;;5020807;28;20202;-77
2023/06/29 02:27:19;;;;;;;10.93;6.32;;;20.60;99.90;;;;;;5017938;28;20195;-77
2023/06/29 02:29:48;;;;;;;11.10;6.43;;;20.50;99.90;;;;;;5041331;28;20699;-78
2023/06/29 02:32:15;;;;;;;8.57;6.60;;;20.50;99.90;;;;;;5030004;28;20226;-77
2023/06/29 02:34:42;;;;;;;8.73;6.38;;;20.50;99.90;;;;;;5028147;28;20206;-77
2023/06/29 02:37:10;;;;;;;10.20;6.68;;;20.40;99.90;;;;;;5032374;28;20211;-77
2023/06/29 02:39:37;;;;;;;10.27;6.57;;;20.40;99.90;;;;;;5024505;28;20206;-77
2023/06/29 02:42:05;;;;;;;8.57;6.38;;;20.50;99.90;;;;;;5013687;28;20226;-78
2023/06/29 02:44:33;;;;;;;8.05;6.68;;;20.40;99.90;;;;;;5016343;28;20207;-77
2023/06/29 02:47:01;;;;;;;11.30;6.47;;;20.40;99.90;;;;;;5031009;28;20563;-77
2023/06/29 02:49:31;;;;;;;7.60;6.47;;;20.50;99.90;;;;;;5024667;28;20199;-77
2023/06/29 02:51:59;;;;;;;9.68;6.93;;;20.50;99.90;;;;;;5020465;28;20219;-77
2023/06/29 02:54:26;;;;;;;9.93;6.45;;;20.40;99.90;;;;;;5019554;28;20233;-82
2023/06/29 02:56:54;;;;;;;8.48;6.70;;;20.40;99.90;;;;;;5030266;28;20215;-78
2023/06/29 02:59:22;;;;;;;9.05;6.22;;;20.40;99.90;;;;;;5030028;28;20195;-78
2023/06/29 03:01:49;;;;;;;8.43;6.30;;;20.40;99.90;;;;;;5011841;28;20218;-79
2023/06/29 03:04:32;;;;;;;12.88;6.70;;;20.40;99.90;;;;;;5024466;28;20885;-81
2023/06/29 03:07:00;;;;;;;9.82;6.18;;;20.50;99.90;;;;;;5008513;28;20199;-79
2023/06/29 03:09:28;;;;;;;9.80;6.65;;;20.50;99.90;;;;;;5036425;28;20207;-79
2023/06/29 03:11:55;;;;;;;7.78;5.85;;;20.50;99.90;;;;;;5033661;28;20547;-79
2023/06/29 03:14:23;;;;;;;9.43;6.28;;;20.50;99.90;;;;;;5013878;28;20210;-79
2023/06/29 03:16:50;;;;;;;9.30;6.80;;;20.40;99.90;;;;;;5011332;28;20787;-79
2023/06/29 03:19:18;;;;;;;8.45;6.18;;;20.40;99.90;;;;;;5025808;28;20658;-79
2023/06/29 03:21:47;;;;;;;8.25;6.63;;;20.40;99.90;;;;;;5019574;28;20226;-79
2023/06/29 03:24:14;;;;;;;14.25;7.85;;;20.50;99.90;;;;;;5019111;28;20203;-79
2023/06/29 03:26:42;;;;;;;9.38;6.53;;;20.50;99.90;;;;;;5014052;28;20186;-82
2023/06/29 03:29:09;;;;;;;7.30;5.75;;;20.50;99.90;;;;;;5017908;28;20271;-78
2023/06/29 03:31:37;;;;;;;10.40;6.38;;;20.50;99.90;;;;;;5025547;28;20211;-79
2023/06/29 03:34:04;;;;;;;10.98;6.25;;;20.50;99.90;;;;;;5029106;28;20208;-78
2023/06/29 03:36:32;;;;;;;10.27;6.30;;;20.60;99.90;;;;;;5027939;28;20210;-79
2023/06/29 03:39:00;;;;;;;8.65;6.18;;;20.60;99.90;;;;;;5009967;28;20210;-79
2023/06/29 03:41:28;;;;;;;7.53;5.40;;;20.50;99.90;;;;;;5013381;28;20214;-79
2023/06/29 03:43:56;;;;;;;8.07;5.50;;;20.50;99.90;;;;;;5030286;28;20195;-79
2023/06/29 03:46:24;;;;;;;11.50;6.40;;;20.40;99.90;;;;;;5001450;28;20195;-82
2023/06/29 03:48:51;;;;;;;8.73;6.30;;;20.40;99.90;;;;;;5013810;28;20207;-79
2023/06/29 03:51:18;;;;;;;8.43;5.65;;;20.40;99.90;;;;;;5024164;28;20210;-78
2023/06/29 03:53:46;;;;;;;8.05;5.90;;;20.40;99.90;;;;;;5008238;28;20210;-78
2023/06/29 03:56:15;;;;;;;10.07;6.32;;;20.40;99.90;;;;;;5006088;28;20218;-78
2023/06/29 03:58:42;;;;;;;7.13;6.00;;;20.50;99.90;;;;;;5019495;28;20210;-78
2023/06/29 04:01:10;;;;;;;6.18;5.57;;;20.40;99.90;;;;;;5020274;28;20217;-79
2023/06/29 04:03:37;;;;;;;8.15;6.25;;;20.40;99.90;;;;;;5021961;28;21551;-78
2023/06/29 04:06:05;;;;;;;7.85;5.72;;;20.40;99.90;;;;;;5028494;28;20202;-78
2023/06/29 04:08:32;;;;;;;6.95;6.05;;;20.40;99.90;;;;;;5037454;28;20206;-78
2023/06/29 04:11:00;;;;;;;7.45;4.85;;;20.40;99.90;;;;;;5030267;28;20203;-79
2023/06/29 04:13:29;;;;;;;8.93;5.68;;;20.40;99.90;;;;;;5014106;28;20219;-79
2023/06/29 04:15:56;;;;;;;7.93;5.63;;;20.50;99.90;;;;;;5032903;28;20198;-79
2023/06/29 04:18:23;;;;;;;8.98;6.18;;;20.60;99.90;;;;;;5026667;28;20216;-79
2023/06/29 04:20:53;;;;;;;8.05;5.85;;;20.60;99.90;;;;;;5025711;28;20197;-79
2023/06/29 04:23:20;;;;;;;8.25;6.85;;;20.70;99.90;;;;;;5029473;28;20234;-79
2023/06/29 04:25:48;;;;;;;11.55;6.30;;;20.60;99.90;;;;;;5009371;28;20204;-79
2023/06/29 04:28:15;;;;;;;7.32;6.15;;;20.70;99.90;;;;;;5023891;28;20191;-79
2023/06/29 04:30:44;;;;;;;8.40;5.78;;;20.60;99.90;;;;;;5026794;28;20202;-79
2023/06/29 04:33:14;;;;;;;8.98;5.63;;;20.60;99.90;;;;;;5005731;28;20218;-79
2023/06/29 04:35:43;;;;;;;7.38;5.97;;;20.60;99.90;;;;;;5002863;28;20202;-78
2023/06/29 04:38:12;;;;;;;8.98;5.90;;;20.60;99.90;;;;;;5021961;28;20210;-78
2023/06/29 04:40:40;;;;;;;8.27;5.45;;;20.60;99.90;;;;;;5023798;28;20201;-78
2023/06/29 04:43:07;;;;;;;9.00;6.28;;;20.60;99.90;;;;;;5012616;28;20219;-78
2023/06/29 04:45:35;;;;;;;8.43;5.40;;;20.60;99.90;;;;;;5010747;28;20218;-79
2023/06/29 04:48:04;;;;;;;7.65;6.50;;;20.50;99.90;;;;;;5003940;28;20323;-78
2023/06/29 04:50:35;;;;;;;9.40;6.63;;;20.40;99.90;;;;;;5011818;28;20214;-78
2023/06/29 04:53:09;;;;;;;7.82;5.68;;;20.40;99.90;;;;;;5016017;28;20222;-78
2023/06/29 04:55:37;;;;;;;9.75;6.57;;;20.50;99.90;;;;;;5021356;28;20205;-78
2023/06/29 04:58:05;;;;;;;12.02;6.43;;;20.40;99.90;;;;;;5022104;28;20226;-78
2023/06/29 05:00:33;;;;;;;8.10;5.95;;;20.40;99.90;;;;;;5027503;28;20198;-79
2023/06/29 05:03:00;;;;;;;8.43;5.88;;;20.40;99.90;;;;;;5028893;28;20222;-78
2023/06/29 05:05:29;;;;;;;7.50;5.93;;;20.50;99.90;;;;;;5020985;28;20198;-78
2023/06/29 05:07:57;;;;;;;9.52;6.22;;;20.40;99.90;;;;;;5003420;28;20683;-78
2023/06/29 05:10:24;;;;;;;9.27;5.85;;;20.40;99.90;;;;;;5025679;28;20202;-78
2023/06/29 05:13:07;;;;;;;8.98;6.60;;;20.40;99.90;;;;;;5007143;28;20222;-79
2023/06/29 05:15:34;;;;;;;10.93;6.38;;;20.50;99.90;;;;;;5013624;28;20199;-78
2023/06/29 05:18:02;;;;;;;8.52;5.72;;;20.50;99.90;;;;;;5013377;28;20388;-79
2023/06/29 05:20:31;;;;;;;9.75;6.53;;;20.60;99.90;;;;;;5011682;28;20203;-78
2023/06/29 05:22:59;;;;;;;9.57;6.28;;;20.60;99.90;;;;;;5006973;28;20214;-79
2023/06/29 05:25:26;;;;;;;8.73;5.75;;;20.60;99.90;;;;;;5029287;28;20203;-79
2023/06/29 05:27:53;;;;;;;8.90;6.10;;;20.60;99.90;;;;;;5002748;28;20215;-78
2023/06/29 05:30:21;;;;;;;8.27;5.80;;;20.60;99.90;;;;;;5012945;28;20214;-78
2023/06/29 05:32:48;;;;;;;7.40;6.10;;;20.60;99.90;;;;;;5007178;28;20234;-80
2023/06/29 05:35:16;;;;;;;9.32;6.13;;;20.70;99.90;;;;;;5018277;28;20196;-78
2023/06/29 05:37:46;;;;;;;8.88;6.28;;;20.60;99.90;;;;;;5026695;28;20223;-78
2023/06/29 05:40:15;;;;;;;10.85;6.22;;;20.70;99.90;;;;;;5020650;28;20203;-78
2023/06/29 05:42:42;;;;;;;7.57;5.93;;;20.80;99.90;;;;;;5003192;28;20229;-81
2023/06/29 05:45:10;;;;;;;8.48;6.45;;;20.90;99.90;;;;;;5021771;28;20233;-78
2023/06/29 05:47:38;;;;;;;11.40;7.15;;;20.90;99.90;;;;;;5005415;28;20222;-78
2023/06/29 05:50:06;;;;;;;14.82;7.22;;;20.90;99.90;;;;;;5004109;28;20662;-78
2023/06/29 05:52:34;;;;;;;9.55;6.75;;;20.90;99.90;;;;;;5023539;28;20219;-79
2023/06/29 05:55:03;;;;;;;8.73;6.03;;;20.90;99.90;;;;;;5006874;28;20555;-78
2023/06/29 05:57:31;;;;;;;8.15;6.60;;;20.90;99.90;;;;;;5027130;28;20238;-78
2023/06/29 05:59:59;;;;;;;7.97;6.32;;;21.00;99.90;;;;;;5021777;28;20210;-79
2023/06/29 06:02:26;;;;;;;8.90;6.43;;;21.10;99.90;;;;;;5014415;28;20227;-78
2023/06/29 06:04:53;;;;;;;8.00;6.25;;;21.00;99.90;;;;;;5013990;28;20199;-78
2023/06/29 06:07:28;;;;;;;11.27;8.02;;;21.10;99.90;;;;;;5029791;28;20203;-78
2023/06/29 06:09:56;;;;;;;11.38;7.25;;;21.10;99.90;;;;;;5031907;28;20202;-79
2023/06/29 06:12:25;;;;;;;9.20;6.50;;;21.10;99.90;;;;;;5007645;28;20234;-81
2023/06/29 06:14:53;;;;;;;13.80;6.95;;;21.30;99.90;;;;;;5030233;28;20215;-78
2023/06/29 06:17:20;;;;;;;7.10;6.03;;;21.30;99.90;;;;;;5014351;28;20203;-78
2023/06/29 06:19:47;;;;;;;10.27;6.80;;;21.30;99.90;;;;;;5027347;28;20234;-78
2023/06/29 06:22:15;;;;;;;9.70;7.20;;;21.30;99.90;;;;;;5033945;28;20214;-78
2023/06/29 06:24:42;;;;;;;8.98;6.70;;;21.40;99.90;;;;;;5029021;28;20199;-78
2023/06/29 06:27:10;;;;;;;10.75;6.97;;;21.30;99.90;;;;;;5032620;28;20221;-78
2023/06/29 06:29:39;;;;;;;10.15;7.40;;;21.20;99.90;;;;;;5024946;28;20672;-78
2023/06/29 06:32:07;;;;;;;14.70;6.72;;;21.30;99.90;;;;;;5028922;28;20230;-78
2023/06/29 06:34:34;;;;;;;9.40;7.13;;;21.30;99.90;;;;;;5006841;28;20213;-79
2023/06/29 06:37:02;;;;;;;9.05;6.50;;;21.30;99.90;;;;;;5011286;28;20223;-78
2023/06/29 06:39:32;;;;;;;8.63;6.72;;;21.40;99.90;;;;;;5016550;28;20222;-78
2023/06/29 06:42:00;;;;;;;8.13;6.78;;;21.30;99.90;;;;;;5008431;28;20234;-78
2023/06/29 06:44:29;;;;;;;7.90;7.05;;;21.30;99.90;;;;;;5029074;28;20678;-78
2023/06/29 06:46:58;;;;;;;9.57;7.20;;;21.30;99.90;;;;;;5034424;28;20203;-78
2023/06/29 06:49:25;;;;;;;11.95;6.90;;;21.40;99.90;;;;;;5024805;28;20206;-78
2023/06/29 06:51:53;;;;;;;8.70;6.38;;;21.50;99.90;;;;;;5032002;28;20226;-78
2023/06/29 06:54:21;;;;;;;10.85;7.45;;;21.50;99.90;;;;;;5010486;28;20202;-79
2023/06/29 06:56:48;;;;;;;10.48;7.45;;;21.40;99.90;;;;;;5037172;28;20203;-81
2023/06/29 06:59:16;;;;;;;8.80;6.53;;;21.40;99.90;;;;;;5012267;28;20223;-78
2023/06/29 07:01:43;;;;;;;9.48;7.35;;;21.50;99.90;;;;;;5028483;28;20222;-78
2023/06/29 07:04:12;;;;;;;9.27;6.50;;;21.60;99.90;;;;;;5030968;28;20206;-80
2023/06/29 07:06:39;;;;;;;9.60;6.45;;;21.70;99.90;;;;;;5023572;28;20207;-78
2023/06/29 07:09:07;;;;;;;7.88;5.95;;;21.80;99.90;;;;;;5034192;28;20571;-80
2023/06/29 07:11:35;;;;;;;6.38;5.78;;;21.90;99.90;;;;;;5009460;28;20215;-77
2023/06/29 07:14:03;;;;;;;8.05;6.28;;;22.00;99.90;;;;;;5023867;28;20692;-78
2023/06/29 07:16:30;;;;;;;9.82;6.65;;;22.00;99.90;;;;;;5027344;28;20203;-79
2023/06/29 07:19:06;;;;;;;8.57;6.22;;;22.00;99.90;;;;;;5013899;28;20211;-78
2023/06/29 07:21:35;;;;;;;9.57;6.47;;;22.00;99.90;;;;;;5026224;28;20207;-78
2023/06/29 07:24:02;;;;;;;10.02;6.10;;;22.10;99.90;;;;;;5027507;28;20206;-77
2023/06/29 07:26:29;;;;;;;8.18;6.60;;;22.10;99.90;;;;;;5028462;28;20198;-78
2023/06/29 07:28:57;;;;;;;9.65;5.95;;;22.10;99.90;;;;;;5027204;28;20206;-78
2023/06/29 07:31:25;;;;;;;8.38;5.97;;;22.10;99.90;;;;;;5026106;28;20535;-78
2023/06/29 07:33:53;;;;;;;9.75;5.22;;;22.10;99.90;;;;;;5025696;28;20210;-78
2023/06/29 07:36:20;;;;;;;12.18;6.22;;;22.10;99.90;;;;;;5015173;28;20735;-78
2023/06/29 07:38:50;;;;;;;7.40;5.32;;;22.10;99.90;;;;;;5030912;28;20226;-79
2023/06/29 07:41:18;;;;;;;11.02;5.80;;;22.20;99.90;;;;;;5009918;28;20195;-78
2023/06/29 07:43:48;;;;;;;9.23;5.30;;;22.20;99.90;;;;;;5025758;28;20186;-78
2023/06/29 07:46:16;;;;;;;7.90;5.60;;;22.10;99.90;;;;;;5023657;28;20288;-79
2023/06/29 07:48:43;;;;;;;8.13;5.25;;;22.10;99.90;;;;;;5035709;28;20188;-78
2023/06/29 07:51:11;;;;;;;7.05;5.18;;;22.20;99.90;;;;;;5020648;28;20202;-78
2023/06/29 07:53:38;;;;;;;8.13;5.22;;;22.10;99.90;;;;;;5018394;28;20719;-78
2023/06/29 07:56:08;;;;;;;7.00;5.10;;;22.20;99.90;;;;;;5028430;28;20223;-78
2023/06/29 07:58:35;;;;;;;7.72;5.15;;;22.20;99.90;;;;;;5017217;28;20226;-78
2023/06/29 08:01:03;;;;;;;8.75;4.55;;;22.20;99.90;;;;;;5030506;28;20665;-79
2023/06/29 08:03:30;;;;;;;8.52;4.95;;;22.20;99.90;;;;;;5034831;28;20223;-79
2023/06/29 08:05:58;;;;;;;9.32;4.88;;;22.10;99.90;;;;;;5025621;28;20191;-79
2023/06/29 08:08:28;;;;;;;9.07;4.75;;;22.00;99.90;;;;;;5010323;28;20669;-78
2023/06/29 08:10:58;;;;;;;6.35;4.70;;;22.10;99.90;;;;;;5022120;28;20195;-78
2023/06/29 08:13:27;;;;;;;5.18;4.35;;;22.10;99.90;;;;;;5043185;28;20219;-78
2023/06/29 08:15:55;;;;;;;8.82;4.63;;;22.10;99.90;;;;;;5036029;28;20203;-80
2023/06/29 08:18:22;;;;;;;6.82;4.90;;;22.00;99.90;;;;;;5038817;28;20203;-78
2023/06/29 08:20:50;;;;;;;4.78;4.32;;;22.10;99.90;;;;;;5032276;28;20202;-78
2023/06/29 08:23:17;;;;;;;8.23;4.35;;;22.10;99.90;;;;;;5052167;28;20215;-80
2023/06/29 08:25:44;;;;;;;7.03;4.45;;;22.10;99.90;;;;;;5036774;28;20210;-78
2023/06/29 08:28:12;;;;;;;6.28;4.40;;;22.10;99.90;;;;;;5009328;28;20202;-78
2023/06/29 08:30:41;;;;;;;9.25;5.03;;;22.10;99.90;;;;;;5037448;28;20203;-80
2023/06/29 08:33:08;;;;;;;5.03;3.90;;;22.10;99.90;;;;;;5032400;28;20215;-78
2023/06/29 08:35:35;;;;;;;7.70;4.60;;;22.10;99.90;;;;;;5025857;28;20675;-79
2023/06/29 08:38:03;;;;;;;8.93;4.60;;;22.00;99.90;;;;;;5022808;28;20207;-78
2023/06/29 08:40:35;;;;;;;10.65;4.45;;;22.10;99.90;;;;;;5041343;28;20226;-78
2023/06/29 08:43:03;;;;;;;7.60;4.60;;;22.10;99.90;;;;;;5033730;28;20229;-79
2023/06/29 08:45:30;;;;;;;7.03;4.85;;;22.00;99.90;;;;;;5025923;28;20206;-79
2023/06/29 08:48:01;;;;;;;6.72;4.53;;;22.10;99.90;;;;;;5029520;28;20198;-81
2023/06/29 08:50:31;;;;;;;7.68;4.90;;;22.10;99.90;;;;;;5021432;28;20187;-78
2023/06/29 08:53:14;;;;;;;11.60;6.15;;;22.10;99.90;;;;;;5003766;28;20223;-78
2023/06/29 08:55:43;;;;;;;7.57;6.05;;;22.10;99.90;;;;;;5009213;28;20195;-78
2023/06/29 08:58:11;;;;;;;9.40;6.22;;;22.10;99.90;;;;;;5035836;28;20210;-78
2023/06/29 09:00:40;;;;;;;12.50;7.28;;;22.10;99.90;;;;;;5027192;28;20574;-78
2023/06/29 09:03:10;;;;;;;10.50;6.95;;;22.10;99.90;;;;;;5037245;28;20222;-80
2023/06/29 09:05:37;;;;;;;9.77;7.00;;;22.10;99.90;;;;;;5022525;28;20198;-78
2023/06/29 09:08:05;;;;;;;9.75;6.43;;;22.30;99.90;;;;;;5024027;28;20218;-79
2023/06/29 09:10:32;;;;;;;8.65;6.75;;;22.30;99.90;;;;;;5022201;28;20200;-79
2023/06/29 09:13:02;;;;;;;9.45;6.60;;;22.30;99.90;;;;;;5030710;28;20218;-79
2023/06/29 09:15:30;;;;;;;9.90;6.90;;;22.40;99.90;;;;;;5024659;28;20557;-77
2023/06/29 09:17:58;;;;;;;10.07;7.03;;;22.40;99.90;;;;;;5010141;28;20199;-78
2023/06/29 09:20:27;;;;;;;10.25;6.97;;;22.40;99.90;;;;;;5013298;28;20238;-78
2023/06/29 09:22:55;;;;;;;9.38;6.53;;;22.30;99.90;;;;;;5009255;28;20598;-79
2023/06/29 09:25:26;;;;;;;9.00;6.35;;;22.40;99.90;;;;;;5008630;28;20210;-78
2023/06/29 09:28:02;;;;;;;9.27;6.68;;;22.30;99.90;;;;;;5007428;28;21486;-78
2023/06/29 09:30:37;;;;;;;9.73;6.68;;;22.40;99.90;;;;;;5031087;28;20203;-78
2023/06/29 09:33:09;;;;;;;10.10;6.85;;;22.40;99.90;;;;;;5037546;28;20214;-78
2023/06/29 09:35:45;;;;;;;10.05;6.20;;;22.40;99.90;;;;;;5015197;28;20226;-79
2023/06/29 09:38:15;;;;;;;12.07;6.70;;;22.40;99.90;;;;;;5029040;28;20212;-79
2023/06/29 09:40:53;;;;;;;10.35;6.28;;;22.40;99.90;;;;;;5025525;28;20230;-78
2023/06/29 09:43:21;;;;;;;13.07;6.53;;;22.50;99.90;;;;;;5006433;28;20218;-78
2023/06/29 09:45:49;;;;;;;11.07;6.45;;;22.50;99.90;;;;;;5029726;28;20206;-78
2023/06/29 09:48:17;;;;;;;8.52;6.85;;;22.50;99.90;;;;;;5034381;28;20195;-80
2023/06/29 09:50:50;;;;;;;9.48;6.72;;;22.60;99.90;;;;;;5012268;28;20207;-77
2023/06/29 09:53:18;;;;;;;10.98;7.65;;;22.50;99.90;;;;;;5026637;28;20705;-77
2023/06/29 09:55:47;;;;;;;10.70;7.15;;;22.50;99.90;;;;;;5030782;28;20191;-77
2023/06/29 09:58:17;;;;;;;11.35;7.68;;;22.60;99.90;;;;;;5024873;28;20207;-77
2023/06/29 10:00:46;;;;;;;9.90;7.00;;;22.60;99.90;;;;;;5024852;28;20229;-77
2023/06/29 10:03:13;;;;;;;11.75;7.22;;;22.60;99.90;;;;;;5029561;28;20215;-77
2023/06/29 10:05:41;;;;;;;9.73;6.60;;;22.70;99.90;;;;;;5030636;28;20213;-77
2023/06/29 10:08:12;;;;;;;9.75;6.68;;;22.60;99.90;;;;;;5019193;28;20195;-77
2023/06/29 10:10:40;;;;;;;7.72;6.50;;;22.50;99.90;;;;;;5027533;28;20194;-77
2023/06/29 10:13:09;;;;;;;9.98;6.88;;;22.40;99.90;;;;;;5013842;28;20700;-78
2023/06/29 10:15:38;;;;;;;8.45;6.80;;;22.50;99.90;;;;;;5032285;28;20214;-77
2023/06/29 10:18:12;;;;;;;9.90;6.95;;;22.60;99.90;;;;;;5033685;28;20199;-77
2023/06/29 10:20:43;;;;;;;12.25;7.40;;;22.50;99.90;;;;;;5012473;28;20219;-76
2023/06/29 10:23:15;;;;;;;12.32;9.32;;;22.50;99.90;;;;;;5028979;28;20234;-78
2023/06/29 10:25:49;;;;;;;11.15;7.18;;;22.50;99.90;;;;;;5028272;28;20192;-78
2023/06/29 10:28:17;;;;;;;11.13;8.23;;;22.50;99.90;;;;;;5032643;28;20195;-79
2023/06/29 10:30:46;;;;;;;12.95;9.18;;;22.60;99.90;;;;;;5039598;28;20199;-79
2023/06/29 10:33:14;;;;;;;11.40;8.52;;;22.60;99.90;;;;;;5025199;28;20219;-79
2023/06/29 10:35:51;;;;;;;13.10;9.38;;;22.60;99.90;;;;;;5037813;28;20205;-79
2023/06/29 10:38:19;;;;;;;12.80;10.00;;;22.60;99.90;;;;;;5026005;28;20201;-79
2023/06/29 10:40:48;;;;;;;13.90;9.60;;;22.60;99.90;;;;;;5013827;28;20681;-79
2023/06/29 10:43:16;;;;;;;15.02;9.50;;;22.70;99.90;;;;;;5044155;28;20226;-79
2023/06/29 10:45:44;;;;;;;12.93;9.43;;;22.80;99.90;;;;;;5009876;28;20210;-79
2023/06/29 10:48:16;;;;;;;13.27;10.15;;;22.90;99.90;;;;;;5034609;28;20200;-79
2023/06/29 10:50:45;;;;;;;15.38;9.68;;;23.00;99.90;;;;;;5018813;28;20210;-79
2023/06/29 10:53:15;;;;;;;17.17;10.20;;;23.20;99.90;;;;;;5031078;28;20704;-79
2023/06/29 10:55:55;;;;;;;14.60;10.23;;;23.30;99.90;;;;;;5040567;28;20198;-79
2023/06/29 10:58:24;;;;;;;13.90;10.32;;;23.50;99.90;;;;;;5030761;28;20202;-79
2023/06/29 11:00:53;;;;;;;13.35;10.98;;;23.50;99.90;;;;;;5015497;28;20222;-78
2023/06/29 11:03:22;;;;;;;17.17;10.60;;;23.50;99.90;;;;;;5028038;28;20226;-78
2023/06/29 11:05:51;;;;;;;13.27;10.02;;;23.50;99.90;;;;;;5024338;28;20206;-78
2023/06/29 11:08:21;;;;;;;18.88;11.50;;;23.60;99.90;;;;;;5041634;28;20192;-78
2023/06/29 11:10:48;;;;;;;15.30;11.50;;;23.50;99.90;;;;;;5013564;28;20191;-78
2023/06/29 11:13:19;;;;;;;17.15;11.48;;;23.60;99.90;;;;;;5033721;28;20696;-78
2023/06/29 11:15:52;;;;;;;14.23;11.85;;;23.70;99.90;;;;;;5028166;28;20207;-79
2023/06/29 11:18:20;;;;;;;15.65;12.95;;;23.90;99.90;;;;;;5029852;28;20689;-78
2023/06/29 11:20:48;;;;;;;17.80;12.02;;;23.80;99.90;;;;;;5039857;28;20221;-78
2023/06/29 11:23:16;;;;;;;15.23;11.77;;;23.80;99.90;;;;;;5014391;28;20222;-78
2023/06/29 11:25:44;;;;;;;15.45;12.90;;;24.10;99.90;;;;;;5028127;28;20202;-78
2023/06/29 11:28:16;;;;;;;15.35;12.52;;;24.10;99.90;;;;;;5029613;28;20201;-78
2023/06/29 11:30:44;;;;;;;18.77;13.38;;;24.30;99.90;;;;;;5037243;28;20685;-78
2023/06/29 11:33:12;;;;;;;17.00;12.60;;;24.40;99.90;;;;;;5026344;28;20230;-78
2023/06/29 11:35:43;;;;;;;14.52;11.80;;;24.80;99.90;;;;;;5028339;28;20201;-78
2023/06/29 11:38:11;;;;;;;15.82;11.40;;;24.90;99.90;;;;;;5019222;28;20199;-78
2023/06/29 11:40:38;;;;;;;18.20;12.48;;;24.70;99.90;;;;;;5014262;28;20210;-78
2023/06/29 11:43:06;;;;;;;16.27;12.00;;;24.40;99.90;;;;;;5036302;28;20231;-78
2023/06/29 11:45:36;;;;;;;17.50;12.40;;;24.50;99.90;;;;;;5026880;28;20199;-79
2023/06/29 11:48:05;;;;;;;13.43;10.85;;;24.70;99.90;;;;;;5032570;28;20694;-78
2023/06/29 11:50:36;;;;;;;16.45;11.48;;;24.90;99.90;;;;;;5013543;28;20210;-79
2023/06/29 11:53:05;;;;;;;15.73;11.93;;;25.00;99.90;;;;;;5028963;28;20233;-78
2023/06/29 11:55:32;;;;;;;16.02;11.50;;;24.90;99.90;;;;;;5016308;28;20695;-78
2023/06/29 11:58:01;;;;;;;16.80;11.52;;;24.60;99.90;;;;;;5015170;28;20199;-79
2023/06/29 12:00:31;;;;;;;14.57;11.75;;;24.50;99.90;;;;;;5032381;28;20207;-78
2023/06/29 12:03:07;;;;;;;13.95;11.98;;;24.40;99.90;;;;;;5035057;28;20228;-78
2023/06/29 12:05:34;;;;;;;18.95;11.88;;;24.30;99.90;;;;;;5024174;28;20203;-78
2023/06/29 12:08:06;;;;;;;16.10;11.32;;;24.20;99.90;;;;;;5023758;28;20199;-78
2023/06/29 12:10:36;;;;;;;15.40;11.63;;;24.20;99.90;;;;;;5030186;28;20206;-77
2023/06/29 12:13:04;;;;;;;16.70;13.40;;;24.10;99.90;;;;;;5023538;28;20223;-78
2023/06/29 12:15:33;;;;;;;15.40;12.50;;;24.10;99.90;;;;;;5025713;28;20223;-78
2023/06/29 12:18:09;;;;;;;18.58;13.45;;;23.80;99.90;;;;;;5030756;28;20202;-78
2023/06/29 12:20:41;;;;;;;16.95;13.20;;;23.60;99.90;;;;;;5031007;28;20716;-78
2023/06/29 12:23:14;;;;;;;15.90;12.05;;;23.50;99.90;;;;;;5012011;28;20215;-78
2023/06/29 12:25:47;;;;;;;20.30;14.25;;;23.50;99.90;;;;;;5038742;28;20203;-77
2023/06/29 12:28:14;;;;;;;15.52;12.45;;;23.50;99.90;;;;;;5031596;28;20665;-78
2023/06/29 12:30:42;;;;;;;17.95;13.93;;;23.50;99.90;;;;;;5033520;28;20195;-77
2023/06/29 12:33:12;;;;;;;21.67;14.85;;;23.30;99.90;;;;;;5028488;28;20222;-77
2023/06/29 12:35:40;;;;;;;19.20;14.43;;;23.20;99.90;;;;;;5029392;28;20684;-79
2023/06/29 12:38:07;;;;;;;21.60;14.88;;;22.80;99.90;;;;;;5027672;28;20195;-78
2023/06/29 12:40:38;;;;;;;19.13;13.93;;;22.80;99.90;;;;;;5020338;28;20227;-78
2023/06/29 12:43:06;;;;;;;19.52;15.23;;;22.80;99.90;;;;;;5010885;28;20219;-78
2023/06/29 12:45:35;;;;;;;18.45;14.95;;;22.80;99.90;;;;;;5018683;28;20210;-78
2023/06/29 12:48:03;;;;;;;21.30;14.93;;;22.80;99.90;;;;;;5020916;28;20192;-78